sensor_id;sensor_type;location;lat;lon;timestamp;P1;durP1;ratioP1;P2;durP2;ratioP2
55827;SDS011;41758;51.992;5.890;2023-11-19T00:02:10;19.67;;;17.73;;
55827;SDS011;41758;51.992;5.890;2023-11-19T00:04:38;19.60;;;17.80;;
55827;SDS011;41758;51.992;5.890;2023-11-19T00:07:04;20.70;;;18.80;;
55827;SDS011;41758;51.992;5.890;2023-11-19T00:09:34;19.80;;;17.88;;
55827;SDS011;41758;51.992;5.890;2023-11-19T00:12:02;20.75;;;18.65;;
55827;SDS011;41758;51.992;5.890;2023-11-19T00:14:29;20.33;;;18.40;;
55827;SDS011;41758;51.992;5.890;2023-11-19T00:16:55;19.83;;;17.92;;
55827;SDS011;41758;51.992;5.890;2023-11-19T00:19:21;19.80;;;17.80;;
55827;SDS011;41758;51.992;5.890;2023-11-19T00:21:46;20.80;;;18.80;;
55827;SDS011;41758;51.992;5.890;2023-11-19T00:24:12;18.98;;;17.05;;
55827;SDS011;41758;51.992;5.890;2023-11-19T00:26:41;17.48;;;15.63;;
55827;SDS011;41758;51.992;5.890;2023-11-19T00:29:07;19.08;;;17.17;;
55827;SDS011;41758;51.992;5.890;2023-11-19T00:31:32;18.25;;;16.35;;
55827;SDS011;41758;51.992;5.890;2023-11-19T00:33:58;18.20;;;16.48;;
55827;SDS011;41758;51.992;5.890;2023-11-19T00:36:24;18.33;;;16.45;;
55827;SDS011;41758;51.992;5.890;2023-11-19T00:38:50;19.77;;;17.17;;
55827;SDS011;41758;51.992;5.890;2023-11-19T00:41:18;18.73;;;16.83;;
55827;SDS011;41758;51.992;5.890;2023-11-19T00:43:44;17.98;;;15.93;;
55827;SDS011;41758;51.992;5.890;2023-11-19T00:46:10;23.98;;;16.80;;
55827;SDS011;41758;51.992;5.890;2023-11-19T00:48:39;21.13;;;16.23;;
55827;SDS011;41758;51.992;5.890;2023-11-19T00:51:05;16.00;;;14.00;;
55827;SDS011;41758;51.992;5.890;2023-11-19T00:53:31;18.70;;;13.27;;
55827;SDS011;41758;51.992;5.890;2023-11-19T00:55:57;16.77;;;12.52;;
55827;SDS011;41758;51.992;5.890;2023-11-19T00:58:23;14.70;;;11.70;;
55827;SDS011;41758;51.992;5.890;2023-11-19T01:00:49;15.90;;;10.77;;
55827;SDS011;41758;51.992;5.890;2023-11-19T01:03:14;16.60;;;10.45;;
55827;SDS011;41758;51.992;5.890;2023-11-19T01:05:43;16.52;;;10.68;;
55827;SDS011;41758;51.992;5.890;2023-11-19T01:08:09;15.50;;;9.10;;
55827;SDS011;41758;51.992;5.890;2023-11-19T01:10:38;14.75;;;9.20;;
55827;SDS011;41758;51.992;5.890;2023-11-19T01:13:04;15.77;;;9.63;;
55827;SDS011;41758;51.992;5.890;2023-11-19T01:15:33;10.85;;;8.20;;
55827;SDS011;41758;51.992;5.890;2023-11-19T01:17:59;13.60;;;7.80;;
55827;SDS011;41758;51.992;5.890;2023-11-19T01:20:27;19.73;;;8.23;;
55827;SDS011;41758;51.992;5.890;2023-11-19T01:22:54;19.60;;;7.93;;
55827;SDS011;41758;51.992;5.890;2023-11-19T01:25:19;15.82;;;7.28;;
55827;SDS011;41758;51.992;5.890;2023-11-19T01:27:45;17.75;;;7.20;;
55827;SDS011;41758;51.992;5.890;2023-11-19T01:30:11;14.55;;;6.30;;
55827;SDS011;41758;51.992;5.890;2023-11-19T01:32:40;17.75;;;7.60;;
55827;SDS011;41758;51.992;5.890;2023-11-19T01:35:06;18.23;;;7.10;;
55827;SDS011;41758;51.992;5.890;2023-11-19T01:37:33;16.25;;;7.00;;
55827;SDS011;41758;51.992;5.890;2023-11-19T01:40:00;18.75;;;6.95;;
55827;SDS011;41758;51.992;5.890;2023-11-19T01:42:28;19.67;;;6.63;;
55827;SDS011;41758;51.992;5.890;2023-11-19T01:44:59;17.92;;;6.90;;
55827;SDS011;41758;51.992;5.890;2023-11-19T01:47:29;20.30;;;7.47;;
55827;SDS011;41758;51.992;5.890;2023-11-19T01:49:56;23.83;;;6.45;;
55827;SDS011;41758;51.992;5.890;2023-11-19T01:52:22;21.92;;;6.82;;
55827;SDS011;41758;51.992;5.890;2023-11-19T01:54:49;20.23;;;6.40;;
55827;SDS011;41758;51.992;5.890;2023-11-19T01:57:17;19.95;;;5.85;;
55827;SDS011;41758;51.992;5.890;2023-11-19T01:59:43;14.95;;;5.88;;
55827;SDS011;41758;51.992;5.890;2023-11-19T02:02:09;21.42;;;6.22;;
55827;SDS011;41758;51.992;5.890;2023-11-19T02:04:37;16.58;;;5.65;;
55827;SDS011;41758;51.992;5.890;2023-11-19T02:07:03;16.67;;;5.85;;
55827;SDS011;41758;51.992;5.890;2023-11-19T02:09:29;15.10;;;5.80;;
55827;SDS011;41758;51.992;5.890;2023-11-19T02:11:55;20.15;;;6.82;;
55827;SDS011;41758;51.992;5.890;2023-11-19T02:14:25;20.50;;;6.20;;
55827;SDS011;41758;51.992;5.890;2023-11-19T02:16:51;18.83;;;5.68;;
55827;SDS011;41758;51.992;5.890;2023-11-19T02:19:20;16.98;;;5.78;;
55827;SDS011;41758;51.992;5.890;2023-11-19T02:21:46;18.17;;;5.55;;
55827;SDS011;41758;51.992;5.890;2023-11-19T02:24:13;15.95;;;5.93;;
55827;SDS011;41758;51.992;5.890;2023-11-19T02:29:11;17.88;;;5.85;;
55827;SDS011;41758;51.992;5.890;2023-11-19T02:31:38;21.15;;;5.55;;
55827;SDS011;41758;51.992;5.890;2023-11-19T02:34:04;16.33;;;4.63;;
55827;SDS011;41758;51.992;5.890;2023-11-19T02:36:30;25.15;;;5.57;;
55827;SDS011;41758;51.992;5.890;2023-11-19T02:38:57;15.57;;;4.45;;
55827;SDS011;41758;51.992;5.890;2023-11-19T02:41:23;29.90;;;5.65;;
55827;SDS011;41758;51.992;5.890;2023-11-19T02:43:49;17.38;;;5.00;;
55827;SDS011;41758;51.992;5.890;2023-11-19T02:46:15;23.02;;;5.75;;
55827;SDS011;41758;51.992;5.890;2023-11-19T02:48:42;22.63;;;4.90;;
55827;SDS011;41758;51.992;5.890;2023-11-19T02:51:09;23.73;;;5.43;;
55827;SDS011;41758;51.992;5.890;2023-11-19T02:53:35;26.65;;;6.00;;
55827;SDS011;41758;51.992;5.890;2023-11-19T02:56:02;27.38;;;5.30;;
55827;SDS011;41758;51.992;5.890;2023-11-19T02:58:42;22.33;;;5.50;;
55827;SDS011;41758;51.992;5.890;2023-11-19T03:01:10;28.73;;;5.72;;
55827;SDS011;41758;51.992;5.890;2023-11-19T03:03:44;21.27;;;4.82;;
55827;SDS011;41758;51.992;5.890;2023-11-19T03:06:14;30.55;;;5.50;;
55827;SDS011;41758;51.992;5.890;2023-11-19T03:08:40;27.00;;;5.82;;
55827;SDS011;41758;51.992;5.890;2023-11-19T03:11:05;24.40;;;5.28;;
55827;SDS011;41758;51.992;5.890;2023-11-19T03:13:31;26.98;;;5.43;;
55827;SDS011;41758;51.992;5.890;2023-11-19T03:15:57;21.90;;;5.35;;
55827;SDS011;41758;51.992;5.890;2023-11-19T03:18:22;32.80;;;6.53;;
55827;SDS011;41758;51.992;5.890;2023-11-19T03:20:48;31.55;;;6.85;;
55827;SDS011;41758;51.992;5.890;2023-11-19T03:23:14;20.85;;;5.30;;
55827;SDS011;41758;51.992;5.890;2023-11-19T03:25:40;28.90;;;6.50;;
55827;SDS011;41758;51.992;5.890;2023-11-19T03:28:06;23.20;;;4.93;;
55827;SDS011;41758;51.992;5.890;2023-11-19T03:30:32;33.28;;;6.60;;
55827;SDS011;41758;51.992;5.890;2023-11-19T03:32:58;33.92;;;6.82;;
55827;SDS011;41758;51.992;5.890;2023-11-19T03:35:24;32.10;;;6.45;;
55827;SDS011;41758;51.992;5.890;2023-11-19T03:37:50;26.65;;;7.25;;
55827;SDS011;41758;51.992;5.890;2023-11-19T03:40:16;31.85;;;7.45;;
55827;SDS011;41758;51.992;5.890;2023-11-19T03:42:44;28.05;;;6.40;;
55827;SDS011;41758;51.992;5.890;2023-11-19T03:45:10;34.42;;;7.88;;
55827;SDS011;41758;51.992;5.890;2023-11-19T03:47:36;34.40;;;8.18;;
55827;SDS011;41758;51.992;5.890;2023-11-19T03:50:02;32.35;;;7.95;;
55827;SDS011;41758;51.992;5.890;2023-11-19T03:52:28;33.65;;;7.93;;
55827;SDS011;41758;51.992;5.890;2023-11-19T03:54:54;44.30;;;10.02;;
55827;SDS011;41758;51.992;5.890;2023-11-19T03:57:21;44.60;;;9.57;;
55827;SDS011;41758;51.992;5.890;2023-11-19T03:59:47;43.17;;;9.20;;
55827;SDS011;41758;51.992;5.890;2023-11-19T04:02:13;35.95;;;8.65;;
55827;SDS011;41758;51.992;5.890;2023-11-19T04:04:39;37.92;;;9.00;;
55827;SDS011;41758;51.992;5.890;2023-11-19T04:07:05;33.50;;;7.35;;
55827;SDS011;41758;51.992;5.890;2023-11-19T04:09:30;32.17;;;7.38;;
55827;SDS011;41758;51.992;5.890;2023-11-19T04:12:00;35.10;;;7.25;;
55827;SDS011;41758;51.992;5.890;2023-11-19T04:14:26;32.47;;;7.20;;
55827;SDS011;41758;51.992;5.890;2023-11-19T04:16:52;29.92;;;6.55;;
55827;SDS011;41758;51.992;5.890;2023-11-19T04:19:18;28.15;;;6.05;;
55827;SDS011;41758;51.992;5.890;2023-11-19T04:21:44;34.67;;;6.97;;
55827;SDS011;41758;51.992;5.890;2023-11-19T04:24:11;30.10;;;6.63;;
55827;SDS011;41758;51.992;5.890;2023-11-19T04:26:42;31.80;;;6.55;;
55827;SDS011;41758;51.992;5.890;2023-11-19T04:29:11;29.85;;;6.57;;
55827;SDS011;41758;51.992;5.890;2023-11-19T04:31:38;30.48;;;6.18;;
55827;SDS011;41758;51.992;5.890;2023-11-19T04:34:04;26.80;;;5.68;;
55827;SDS011;41758;51.992;5.890;2023-11-19T04:36:31;37.08;;;6.95;;
55827;SDS011;41758;51.992;5.890;2023-11-19T04:38:58;33.97;;;6.45;;
55827;SDS011;41758;51.992;5.890;2023-11-19T04:41:25;31.67;;;6.47;;
55827;SDS011;41758;51.992;5.890;2023-11-19T04:43:52;28.25;;;5.68;;
55827;SDS011;41758;51.992;5.890;2023-11-19T04:46:18;30.42;;;6.47;;
55827;SDS011;41758;51.992;5.890;2023-11-19T04:48:44;36.95;;;7.45;;
55827;SDS011;41758;51.992;5.890;2023-11-19T04:51:10;30.85;;;7.05;;
55827;SDS011;41758;51.992;5.890;2023-11-19T04:53:35;37.78;;;6.85;;
55827;SDS011;41758;51.992;5.890;2023-11-19T04:56:07;30.13;;;6.50;;
55827;SDS011;41758;51.992;5.890;2023-11-19T04:58:36;32.63;;;6.75;;
55827;SDS011;41758;51.992;5.890;2023-11-19T05:01:02;28.90;;;6.18;;
55827;SDS011;41758;51.992;5.890;2023-11-19T05:03:29;26.88;;;5.93;;
55827;SDS011;41758;51.992;5.890;2023-11-19T05:05:55;29.27;;;5.82;;
55827;SDS011;41758;51.992;5.890;2023-11-19T05:08:21;27.88;;;6.25;;
55827;SDS011;41758;51.992;5.890;2023-11-19T05:10:46;36.22;;;7.43;;
55827;SDS011;41758;51.992;5.890;2023-11-19T05:13:12;30.17;;;6.85;;
55827;SDS011;41758;51.992;5.890;2023-11-19T05:15:37;37.08;;;7.15;;
55827;SDS011;41758;51.992;5.890;2023-11-19T05:18:03;35.33;;;6.85;;
55827;SDS011;41758;51.992;5.890;2023-11-19T05:20:30;28.95;;;6.10;;
55827;SDS011;41758;51.992;5.890;2023-11-19T05:22:56;30.40;;;6.70;;
55827;SDS011;41758;51.992;5.890;2023-11-19T05:25:21;42.83;;;8.10;;
55827;SDS011;41758;51.992;5.890;2023-11-19T05:27:47;25.88;;;5.80;;
55827;SDS011;41758;51.992;5.890;2023-11-19T05:30:13;32.53;;;6.32;;
55827;SDS011;41758;51.992;5.890;2023-11-19T05:32:38;35.33;;;6.60;;
55827;SDS011;41758;51.992;5.890;2023-11-19T05:35:04;44.65;;;7.88;;
55827;SDS011;41758;51.992;5.890;2023-11-19T05:37:30;37.40;;;6.97;;
55827;SDS011;41758;51.992;5.890;2023-11-19T05:39:56;36.30;;;7.00;;
55827;SDS011;41758;51.992;5.890;2023-11-19T05:42:21;32.80;;;6.75;;
55827;SDS011;41758;51.992;5.890;2023-11-19T05:44:48;31.67;;;6.85;;
55827;SDS011;41758;51.992;5.890;2023-11-19T05:47:14;37.97;;;8.00;;
55827;SDS011;41758;51.992;5.890;2023-11-19T05:49:40;33.63;;;6.53;;
55827;SDS011;41758;51.992;5.890;2023-11-19T05:52:06;37.47;;;7.10;;
55827;SDS011;41758;51.992;5.890;2023-11-19T05:54:32;38.78;;;7.30;;
55827;SDS011;41758;51.992;5.890;2023-11-19T05:57:03;34.92;;;7.25;;
55827;SDS011;41758;51.992;5.890;2023-11-19T05:59:29;36.80;;;7.40;;
55827;SDS011;41758;51.992;5.890;2023-11-19T06:01:57;40.42;;;7.57;;
55827;SDS011;41758;51.992;5.890;2023-11-19T06:04:23;30.38;;;5.88;;
55827;SDS011;41758;51.992;5.890;2023-11-19T06:06:48;19.92;;;5.68;;
55827;SDS011;41758;51.992;5.890;2023-11-19T06:09:14;26.85;;;5.75;;
55827;SDS011;41758;51.992;5.890;2023-11-19T06:11:39;36.92;;;7.38;;
55827;SDS011;41758;51.992;5.890;2023-11-19T06:14:06;33.50;;;6.10;;
55827;SDS011;41758;51.992;5.890;2023-11-19T06:16:32;36.38;;;7.32;;
55827;SDS011;41758;51.992;5.890;2023-11-19T06:18:58;33.22;;;6.60;;
55827;SDS011;41758;51.992;5.890;2023-11-19T06:21:23;39.17;;;8.02;;
55827;SDS011;41758;51.992;5.890;2023-11-19T06:23:50;31.38;;;7.00;;
55827;SDS011;41758;51.992;5.890;2023-11-19T06:26:17;27.13;;;6.40;;
55827;SDS011;41758;51.992;5.890;2023-11-19T06:28:43;35.00;;;7.20;;
55827;SDS011;41758;51.992;5.890;2023-11-19T06:31:09;40.53;;;7.75;;
55827;SDS011;41758;51.992;5.890;2023-11-19T06:33:35;31.65;;;7.03;;
55827;SDS011;41758;51.992;5.890;2023-11-19T06:36:01;31.20;;;7.13;;
55827;SDS011;41758;51.992;5.890;2023-11-19T06:38:26;30.30;;;7.07;;
55827;SDS011;41758;51.992;5.890;2023-11-19T06:40:52;35.63;;;6.72;;
55827;SDS011;41758;51.992;5.890;2023-11-19T06:43:17;31.73;;;6.15;;
55827;SDS011;41758;51.992;5.890;2023-11-19T06:45:43;32.42;;;6.57;;
55827;SDS011;41758;51.992;5.890;2023-11-19T06:48:09;32.28;;;5.93;;
55827;SDS011;41758;51.992;5.890;2023-11-19T06:50:35;38.22;;;7.30;;
55827;SDS011;41758;51.992;5.890;2023-11-19T06:53:01;38.78;;;7.78;;
55827;SDS011;41758;51.992;5.890;2023-11-19T06:55:26;41.67;;;7.70;;
55827;SDS011;41758;51.992;5.890;2023-11-19T06:57:52;30.98;;;6.32;;
55827;SDS011;41758;51.992;5.890;2023-11-19T07:00:18;34.60;;;6.90;;
55827;SDS011;41758;51.992;5.890;2023-11-19T07:02:44;29.60;;;6.20;;
55827;SDS011;41758;51.992;5.890;2023-11-19T07:05:09;39.92;;;7.40;;
55827;SDS011;41758;51.992;5.890;2023-11-19T07:07:37;33.00;;;6.30;;
55827;SDS011;41758;51.992;5.890;2023-11-19T07:10:03;26.80;;;5.55;;
55827;SDS011;41758;51.992;5.890;2023-11-19T07:12:30;44.70;;;7.60;;
55827;SDS011;41758;51.992;5.890;2023-11-19T07:14:55;34.17;;;7.20;;
55827;SDS011;41758;51.992;5.890;2023-11-19T07:17:21;27.48;;;6.40;;
55827;SDS011;41758;51.992;5.890;2023-11-19T07:19:49;33.78;;;6.63;;
55827;SDS011;41758;51.992;5.890;2023-11-19T07:22:16;33.83;;;6.40;;
55827;SDS011;41758;51.992;5.890;2023-11-19T07:24:42;33.80;;;6.90;;
55827;SDS011;41758;51.992;5.890;2023-11-19T07:27:08;34.35;;;6.35;;
55827;SDS011;41758;51.992;5.890;2023-11-19T07:29:34;42.65;;;7.30;;
55827;SDS011;41758;51.992;5.890;2023-11-19T07:32:01;39.60;;;7.63;;
55827;SDS011;41758;51.992;5.890;2023-11-19T07:34:30;39.95;;;7.93;;
55827;SDS011;41758;51.992;5.890;2023-11-19T07:36:55;28.83;;;6.35;;
55827;SDS011;41758;51.992;5.890;2023-11-19T07:39:24;36.33;;;7.60;;
55827;SDS011;41758;51.992;5.890;2023-11-19T07:41:50;34.28;;;6.68;;
55827;SDS011;41758;51.992;5.890;2023-11-19T07:44:16;32.80;;;6.30;;
55827;SDS011;41758;51.992;5.890;2023-11-19T07:46:41;31.23;;;6.75;;
55827;SDS011;41758;51.992;5.890;2023-11-19T07:49:07;39.65;;;8.02;;
55827;SDS011;41758;51.992;5.890;2023-11-19T07:51:33;34.55;;;7.13;;
55827;SDS011;41758;51.992;5.890;2023-11-19T07:53:58;34.70;;;6.57;;
55827;SDS011;41758;51.992;5.890;2023-11-19T07:56:24;34.17;;;7.32;;
55827;SDS011;41758;51.992;5.890;2023-11-19T07:58:50;39.45;;;7.88;;
55827;SDS011;41758;51.992;5.890;2023-11-19T08:01:15;35.40;;;7.45;;
55827;SDS011;41758;51.992;5.890;2023-11-19T08:03:41;35.70;;;7.18;;
55827;SDS011;41758;51.992;5.890;2023-11-19T08:06:07;33.70;;;6.85;;
55827;SDS011;41758;51.992;5.890;2023-11-19T08:08:32;46.38;;;8.25;;
55827;SDS011;41758;51.992;5.890;2023-11-19T08:11:00;33.53;;;6.63;;
55827;SDS011;41758;51.992;5.890;2023-11-19T08:13:26;47.63;;;8.15;;
55827;SDS011;41758;51.992;5.890;2023-11-19T08:15:51;40.45;;;7.40;;
55827;SDS011;41758;51.992;5.890;2023-11-19T08:18:17;31.67;;;7.07;;
55827;SDS011;41758;51.992;5.890;2023-11-19T08:20:43;30.65;;;6.75;;
55827;SDS011;41758;51.992;5.890;2023-11-19T08:23:10;32.10;;;6.45;;
55827;SDS011;41758;51.992;5.890;2023-11-19T08:25:35;26.95;;;6.43;;
55827;SDS011;41758;51.992;5.890;2023-11-19T08:28:01;36.28;;;7.20;;
55827;SDS011;41758;51.992;5.890;2023-11-19T08:30:28;36.22;;;6.93;;
55827;SDS011;41758;51.992;5.890;2023-11-19T08:32:55;30.17;;;6.95;;
55827;SDS011;41758;51.992;5.890;2023-11-19T08:35:21;36.08;;;6.72;;
55827;SDS011;41758;51.992;5.890;2023-11-19T08:37:47;43.78;;;7.78;;
55827;SDS011;41758;51.992;5.890;2023-11-19T08:40:12;31.90;;;6.65;;
55827;SDS011;41758;51.992;5.890;2023-11-19T08:42:40;29.70;;;6.28;;
55827;SDS011;41758;51.992;5.890;2023-11-19T08:45:06;35.65;;;7.50;;
55827;SDS011;41758;51.992;5.890;2023-11-19T08:47:35;32.65;;;7.13;;
55827;SDS011;41758;51.992;5.890;2023-11-19T08:50:01;32.80;;;6.28;;
55827;SDS011;41758;51.992;5.890;2023-11-19T08:52:29;33.03;;;6.50;;
55827;SDS011;41758;51.992;5.890;2023-11-19T08:54:55;34.08;;;6.55;;
55827;SDS011;41758;51.992;5.890;2023-11-19T08:57:21;38.10;;;7.15;;
55827;SDS011;41758;51.992;5.890;2023-11-19T08:59:46;35.80;;;6.65;;
55827;SDS011;41758;51.992;5.890;2023-11-19T09:02:12;33.45;;;6.68;;
55827;SDS011;41758;51.992;5.890;2023-11-19T09:04:38;31.10;;;6.50;;
55827;SDS011;41758;51.992;5.890;2023-11-19T09:07:03;37.15;;;7.22;;
55827;SDS011;41758;51.992;5.890;2023-11-19T09:09:29;36.63;;;6.35;;
55827;SDS011;41758;51.992;5.890;2023-11-19T09:11:55;33.53;;;7.00;;
55827;SDS011;41758;51.992;5.890;2023-11-19T09:14:21;33.25;;;6.35;;
55827;SDS011;41758;51.992;5.890;2023-11-19T09:16:51;33.83;;;6.65;;
55827;SDS011;41758;51.992;5.890;2023-11-19T09:19:17;27.67;;;6.05;;
55827;SDS011;41758;51.992;5.890;2023-11-19T09:21:43;29.98;;;6.68;;
55827;SDS011;41758;51.992;5.890;2023-11-19T09:24:08;31.00;;;7.00;;
55827;SDS011;41758;51.992;5.890;2023-11-19T09:26:34;35.42;;;6.85;;
55827;SDS011;41758;51.992;5.890;2023-11-19T09:29:01;23.98;;;5.22;;
55827;SDS011;41758;51.992;5.890;2023-11-19T09:31:27;31.33;;;6.53;;
55827;SDS011;41758;51.992;5.890;2023-11-19T09:33:52;36.65;;;7.20;;
55827;SDS011;41758;51.992;5.890;2023-11-19T09:36:18;33.13;;;6.72;;
55827;SDS011;41758;51.992;5.890;2023-11-19T09:38:44;40.97;;;7.20;;
55827;SDS011;41758;51.992;5.890;2023-11-19T09:41:10;32.65;;;6.60;;
55827;SDS011;41758;51.992;5.890;2023-11-19T09:43:41;34.33;;;6.88;;
55827;SDS011;41758;51.992;5.890;2023-11-19T09:46:11;33.83;;;7.60;;
55827;SDS011;41758;51.992;5.890;2023-11-19T09:48:39;40.45;;;6.95;;
55827;SDS011;41758;51.992;5.890;2023-11-19T09:51:08;32.33;;;7.53;;
55827;SDS011;41758;51.992;5.890;2023-11-19T09:53:35;31.65;;;6.60;;
55827;SDS011;41758;51.992;5.890;2023-11-19T09:56:05;32.95;;;6.78;;
55827;SDS011;41758;51.992;5.890;2023-11-19T09:58:31;32.20;;;6.88;;
55827;SDS011;41758;51.992;5.890;2023-11-19T10:00:57;27.20;;;6.03;;
55827;SDS011;41758;51.992;5.890;2023-11-19T10:03:24;33.13;;;6.78;;
55827;SDS011;41758;51.992;5.890;2023-11-19T10:05:52;31.92;;;6.95;;
55827;SDS011;41758;51.992;5.890;2023-11-19T10:08:19;37.88;;;7.13;;
55827;SDS011;41758;51.992;5.890;2023-11-19T10:10:45;32.08;;;7.40;;
55827;SDS011;41758;51.992;5.890;2023-11-19T10:13:12;25.55;;;6.43;;
55827;SDS011;41758;51.992;5.890;2023-11-19T10:15:39;41.35;;;7.65;;
55827;SDS011;41758;51.992;5.890;2023-11-19T10:18:06;31.73;;;6.63;;
55827;SDS011;41758;51.992;5.890;2023-11-19T10:20:35;35.58;;;7.10;;
55827;SDS011;41758;51.992;5.890;2023-11-19T10:23:02;34.55;;;6.80;;
55827;SDS011;41758;51.992;5.890;2023-11-19T10:25:28;29.17;;;6.35;;
55827;SDS011;41758;51.992;5.890;2023-11-19T10:27:54;32.00;;;6.32;;
55827;SDS011;41758;51.992;5.890;2023-11-19T10:30:22;33.58;;;7.00;;
55827;SDS011;41758;51.992;5.890;2023-11-19T10:35:34;32.83;;;6.72;;
55827;SDS011;41758;51.992;5.890;2023-11-19T10:38:01;29.95;;;6.60;;
55827;SDS011;41758;51.992;5.890;2023-11-19T10:40:43;28.23;;;6.00;;
55827;SDS011;41758;51.992;5.890;2023-11-19T10:43:09;25.00;;;5.50;;
55827;SDS011;41758;51.992;5.890;2023-11-19T10:45:35;32.35;;;7.32;;
55827;SDS011;41758;51.992;5.890;2023-11-19T10:48:02;21.77;;;4.82;;
55827;SDS011;41758;51.992;5.890;2023-11-19T10:50:32;20.77;;;5.43;;
55827;SDS011;41758;51.992;5.890;2023-11-19T10:52:59;30.90;;;6.70;;
55827;SDS011;41758;51.992;5.890;2023-11-19T10:55:29;31.42;;;7.18;;
55827;SDS011;41758;51.992;5.890;2023-11-19T10:57:58;30.00;;;6.18;;
55827;SDS011;41758;51.992;5.890;2023-11-19T11:00:25;25.60;;;6.05;;
55827;SDS011;41758;51.992;5.890;2023-11-19T11:02:54;25.02;;;5.88;;
55827;SDS011;41758;51.992;5.890;2023-11-19T11:05:24;28.30;;;6.18;;
55827;SDS011;41758;51.992;5.890;2023-11-19T11:07:51;23.92;;;5.93;;
55827;SDS011;41758;51.992;5.890;2023-11-19T11:10:20;35.13;;;6.90;;
55827;SDS011;41758;51.992;5.890;2023-11-19T11:12:48;31.92;;;6.57;;
55827;SDS011;41758;51.992;5.890;2023-11-19T11:15:15;24.48;;;5.70;;
55827;SDS011;41758;51.992;5.890;2023-11-19T11:17:43;27.48;;;5.97;;
55827;SDS011;41758;51.992;5.890;2023-11-19T11:20:11;26.95;;;5.93;;
55827;SDS011;41758;51.992;5.890;2023-11-19T11:22:42;31.08;;;6.65;;
55827;SDS011;41758;51.992;5.890;2023-11-19T11:25:34;30.30;;;6.65;;
55827;SDS011;41758;51.992;5.890;2023-11-19T11:28:18;25.35;;;5.75;;
55827;SDS011;41758;51.992;5.890;2023-11-19T11:31:07;25.40;;;6.03;;
55827;SDS011;41758;51.992;5.890;2023-11-19T11:33:39;29.40;;;5.90;;
55827;SDS011;41758;51.992;5.890;2023-11-19T11:38:43;30.45;;;7.20;;
55827;SDS011;41758;51.992;5.890;2023-11-19T11:41:22;31.52;;;6.30;;
55827;SDS011;41758;51.992;5.890;2023-11-19T11:43:53;19.42;;;4.85;;
55827;SDS011;41758;51.992;5.890;2023-11-19T11:49:01;28.55;;;6.40;;
55827;SDS011;41758;51.992;5.890;2023-11-19T11:54:11;28.88;;;6.13;;
55827;SDS011;41758;51.992;5.890;2023-11-19T11:56:43;32.50;;;6.57;;
55827;SDS011;41758;51.992;5.890;2023-11-19T12:02:10;26.70;;;6.18;;
55827;SDS011;41758;51.992;5.890;2023-11-19T12:04:37;24.25;;;5.60;;
55827;SDS011;41758;51.992;5.890;2023-11-19T12:07:04;30.50;;;6.20;;
55827;SDS011;41758;51.992;5.890;2023-11-19T12:09:38;31.53;;;6.60;;
55827;SDS011;41758;51.992;5.890;2023-11-19T12:20:05;21.20;;;5.57;;
55827;SDS011;41758;51.992;5.890;2023-11-19T12:22:37;19.70;;;4.82;;
55827;SDS011;41758;51.992;5.890;2023-11-19T12:25:07;19.42;;;4.78;;
55827;SDS011;41758;51.992;5.890;2023-11-19T12:27:34;19.60;;;4.85;;
55827;SDS011;41758;51.992;5.890;2023-11-19T12:30:02;21.30;;;4.75;;
55827;SDS011;41758;51.992;5.890;2023-11-19T12:32:41;22.13;;;5.07;;
55827;SDS011;41758;51.992;5.890;2023-11-19T12:35:08;17.80;;;4.90;;
55827;SDS011;41758;51.992;5.890;2023-11-19T12:37:43;19.48;;;4.93;;
55827;SDS011;41758;51.992;5.890;2023-11-19T12:40:25;23.30;;;4.65;;
55827;SDS011;41758;51.992;5.890;2023-11-19T12:42:51;15.68;;;4.72;;
55827;SDS011;41758;51.992;5.890;2023-11-19T12:45:18;22.88;;;4.93;;
55827;SDS011;41758;51.992;5.890;2023-11-19T12:47:46;18.27;;;4.38;;
55827;SDS011;41758;51.992;5.890;2023-11-19T12:50:17;18.52;;;4.50;;
55827;SDS011;41758;51.992;5.890;2023-11-19T12:53:05;19.27;;;4.57;;
55827;SDS011;41758;51.992;5.890;2023-11-19T12:55:30;18.35;;;4.43;;
55827;SDS011;41758;51.992;5.890;2023-11-19T12:57:57;21.88;;;5.47;;
55827;SDS011;41758;51.992;5.890;2023-11-19T13:00:24;16.98;;;4.28;;
55827;SDS011;41758;51.992;5.890;2023-11-19T13:02:56;23.48;;;5.38;;
55827;SDS011;41758;51.992;5.890;2023-11-19T13:05:34;19.63;;;4.72;;
55827;SDS011;41758;51.992;5.890;2023-11-19T13:08:04;22.42;;;4.63;;
55827;SDS011;41758;51.992;5.890;2023-11-19T13:10:31;18.85;;;4.82;;
55827;SDS011;41758;51.992;5.890;2023-11-19T13:15:31;17.93;;;4.63;;
55827;SDS011;41758;51.992;5.890;2023-11-19T13:17:58;20.60;;;5.20;;
55827;SDS011;41758;51.992;5.890;2023-11-19T13:20:24;20.10;;;4.90;;
55827;SDS011;41758;51.992;5.890;2023-11-19T13:25:28;25.40;;;5.70;;
55827;SDS011;41758;51.992;5.890;2023-11-19T13:27:56;22.25;;;5.47;;
55827;SDS011;41758;51.992;5.890;2023-11-19T13:30:22;21.33;;;5.10;;
55827;SDS011;41758;51.992;5.890;2023-11-19T13:32:49;20.15;;;5.65;;
55827;SDS011;41758;51.992;5.890;2023-11-19T13:35:15;21.58;;;5.05;;
55827;SDS011;41758;51.992;5.890;2023-11-19T13:37:44;24.48;;;5.60;;
55827;SDS011;41758;51.992;5.890;2023-11-19T13:40:11;19.08;;;4.47;;
55827;SDS011;41758;51.992;5.890;2023-11-19T13:42:43;25.77;;;6.05;;
55827;SDS011;41758;51.992;5.890;2023-11-19T13:45:12;23.95;;;5.95;;
55827;SDS011;41758;51.992;5.890;2023-11-19T13:47:40;25.30;;;5.90;;
55827;SDS011;41758;51.992;5.890;2023-11-19T13:50:10;23.02;;;5.35;;
55827;SDS011;41758;51.992;5.890;2023-11-19T13:52:37;18.35;;;4.93;;
55827;SDS011;41758;51.992;5.890;2023-11-19T13:55:07;21.52;;;5.43;;
55827;SDS011;41758;51.992;5.890;2023-11-19T13:57:34;24.95;;;5.40;;
55827;SDS011;41758;51.992;5.890;2023-11-19T14:00:08;21.05;;;5.25;;
55827;SDS011;41758;51.992;5.890;2023-11-19T14:02:39;16.60;;;4.78;;
55827;SDS011;41758;51.992;5.890;2023-11-19T14:05:05;16.95;;;4.65;;
55827;SDS011;41758;51.992;5.890;2023-11-19T14:07:32;12.07;;;3.60;;
55827;SDS011;41758;51.992;5.890;2023-11-19T14:09:58;21.17;;;4.38;;
55827;SDS011;41758;51.992;5.890;2023-11-19T14:12:23;16.50;;;4.28;;
55827;SDS011;41758;51.992;5.890;2023-11-19T14:14:49;19.02;;;4.93;;
55827;SDS011;41758;51.992;5.890;2023-11-19T14:17:15;18.98;;;4.90;;
55827;SDS011;41758;51.992;5.890;2023-11-19T14:19:44;17.88;;;4.43;;
55827;SDS011;41758;51.992;5.890;2023-11-19T14:22:10;21.20;;;4.53;;
55827;SDS011;41758;51.992;5.890;2023-11-19T14:24:36;24.30;;;4.80;;
55827;SDS011;41758;51.992;5.890;2023-11-19T14:27:02;15.82;;;4.32;;
55827;SDS011;41758;51.992;5.890;2023-11-19T14:29:28;17.45;;;4.40;;
55827;SDS011;41758;51.992;5.890;2023-11-19T14:31:55;18.33;;;4.88;;
55827;SDS011;41758;51.992;5.890;2023-11-19T14:34:21;18.90;;;5.03;;
55827;SDS011;41758;51.992;5.890;2023-11-19T14:36:47;15.57;;;4.30;;
55827;SDS011;41758;51.992;5.890;2023-11-19T14:39:13;17.23;;;4.90;;
55827;SDS011;41758;51.992;5.890;2023-11-19T14:41:38;21.30;;;4.90;;
55827;SDS011;41758;51.992;5.890;2023-11-19T14:44:04;18.35;;;4.85;;
55827;SDS011;41758;51.992;5.890;2023-11-19T14:46:30;18.70;;;4.53;;
55827;SDS011;41758;51.992;5.890;2023-11-19T14:48:56;19.10;;;4.93;;
55827;SDS011;41758;51.992;5.890;2023-11-19T14:51:22;21.83;;;4.82;;
55827;SDS011;41758;51.992;5.890;2023-11-19T14:53:48;22.35;;;5.47;;
55827;SDS011;41758;51.992;5.890;2023-11-19T14:56:13;17.13;;;4.60;;
55827;SDS011;41758;51.992;5.890;2023-11-19T14:58:39;22.77;;;5.80;;
55827;SDS011;41758;51.992;5.890;2023-11-19T15:01:05;16.58;;;4.38;;
55827;SDS011;41758;51.992;5.890;2023-11-19T15:03:32;18.88;;;4.55;;